createdAt,value
2024-05-09T00:00:22.145Z,94498.59
2024-05-09T00:01:20.436Z,94500.41
2024-05-09T00:01:53.532Z,94497.84
2024-05-09T00:02:27.082Z,94498.58
2024-05-09T00:03:01.089Z,94497.64
2024-05-09T00:03:34.480Z,94500.31
2024-05-09T00:04:07.930Z,94497.50
2024-05-09T00:04:41.294Z,94492.96
2024-05-09T00:05:14.737Z,94498.08
2024-05-09T00:05:48.397Z,94498.41
2024-05-09T00:06:21.676Z,94495.16
2024-05-09T00:06:55.065Z,94495.33
2024-05-09T00:07:28.311Z,94495.53
2024-05-09T00:08:01.781Z,94497.27
2024-05-09T00:08:35.462Z,94496.90
2024-05-09T00:09:08.890Z,94496.02
2024-05-09T00:09:41.920Z,94492.42
2024-05-09T00:10:25.048Z,94496.42
2024-05-09T00:11:02.920Z,94497.45
2024-05-09T00:11:36.211Z,94494.00
2024-05-09T00:12:10.092Z,94493.50
2024-05-09T00:12:44.566Z,94497.39
2024-05-09T00:13:18.344Z,94494.69
2024-05-09T00:13:51.481Z,94493.23
2024-05-09T00:14:24.731Z,94493.36
2024-05-09T00:14:58.448Z,94494.16
2024-05-09T00:15:33.156Z,94490.63
2024-05-09T00:16:07.275Z,94488.52
2024-05-09T00:16:40.561Z,94492.48
2024-05-09T00:17:13.860Z,94491.23
2024-05-09T00:17:47.203Z,94490.14
2024-05-09T00:18:20.507Z,94490.94
2024-05-09T00:18:54.260Z,94491.98
2024-05-09T00:19:27.844Z,94490.05
2024-05-09T00:20:01.271Z,94487.69
2024-05-09T00:20:39.039Z,94485.32
2024-05-09T00:21:14.311Z,94482.83
2024-05-09T00:21:47.588Z,94484.71
2024-05-09T00:22:20.706Z,94484.52
2024-05-09T00:22:54.079Z,94480.61
2024-05-09T00:23:27.292Z,94484.35
2024-05-09T00:24:00.589Z,94479.23
2024-05-09T00:24:33.875Z,94487.37
2024-05-09T00:25:08.918Z,94484.55
2024-05-09T00:25:45.356Z,94484.15
2024-05-09T00:26:18.754Z,94485.16
2024-05-09T00:26:51.948Z,94486.45
2024-05-09T00:27:25.407Z,94486.77
2024-05-09T00:27:58.999Z,94482.45
2024-05-09T00:28:34.375Z,94484.43
2024-05-09T00:29:07.616Z,94483.05
2024-05-09T00:29:40.819Z,94484.16
2024-05-09T00:30:21.438Z,94482.67
2024-05-09T00:31:02.893Z,94483.52
2024-05-09T00:31:35.897Z,94483.40
2024-05-09T00:32:09.094Z,94475.81
2024-05-09T00:32:42.560Z,94479.09
2024-05-09T00:33:16.121Z,94481.59
2024-05-09T00:33:49.636Z,94479.09
2024-05-09T00:34:24.183Z,94482.48
2024-05-09T00:34:57.588Z,94473.94
2024-05-09T00:35:33.706Z,94478.15
2024-05-09T00:36:08.258Z,94468.98
2024-05-09T00:36:41.917Z,94481.98
2024-05-09T00:37:16.904Z,94479.53
2024-05-09T00:37:50.569Z,94477.10
2024-05-09T00:38:23.983Z,94480.41
2024-05-09T00:38:58.337Z,94476.46
2024-05-09T00:39:31.648Z,94477.30
2024-05-09T00:40:07.429Z,94474.96
2024-05-09T00:40:43.870Z,94475.83
2024-05-09T00:41:19.662Z,94472.63
2024-05-09T00:41:53.312Z,94474.86
2024-05-09T00:42:26.628Z,94475.81
2024-05-09T00:42:59.766Z,94474.21
2024-05-09T00:43:33.036Z,94467.45
2024-05-09T00:44:06.444Z,94473.30
2024-05-09T00:44:40.131Z,94472.31
2024-05-09T00:45:13.488Z,94473.91
2024-05-09T00:45:47.181Z,94475.36
2024-05-09T00:46:21.252Z,94472.64
2024-05-09T00:46:56.328Z,94469.86
2024-05-09T00:47:29.991Z,94466.05
2024-05-09T00:48:06.792Z,94471.75
2024-05-09T00:48:41.636Z,94471.60
2024-05-09T00:49:15.831Z,94473.77
2024-05-09T00:49:49.707Z,94470.96
2024-05-09T00:50:29.954Z,94470.45
2024-05-09T00:51:09.270Z,94472.95
2024-05-09T00:51:43.161Z,94476.89
2024-05-09T00:52:16.810Z,94477.23
2024-05-09T00:52:50.546Z,94473.77
2024-05-09T00:53:24.222Z,94476.61
2024-05-09T00:53:57.825Z,94475.87
2024-05-09T00:54:31.424Z,94477.52
2024-05-09T00:55:05.079Z,94477.90
2024-05-09T00:55:39.470Z,94476.49
2024-05-09T00:56:13.430Z,94470.84
2024-05-09T00:56:49.165Z,94474.92
2024-05-09T00:57:23.841Z,94473.73
2024-05-09T00:57:57.010Z,94468.05
2024-05-09T00:58:30.835Z,94474.00
2024-05-09T00:59:04.782Z,94471.98
2024-05-09T00:59:38.912Z,94471.66
2024-05-09T01:00:22.530Z,94471.97
2024-05-09T01:01:06.655Z,94473.00
2024-05-09T01:01:41.327Z,94471.88
2024-05-09T01:02:16.390Z,94474.25
2024-05-09T01:02:49.826Z,94472.12
2024-05-09T01:03:23.660Z,94472.80
2024-05-09T01:03:57.706Z,94465.77
2024-05-09T01:04:31.755Z,94471.41
2024-05-09T01:05:05.522Z,94470.48
2024-05-09T01:05:39.911Z,94464.91
2024-05-09T01:06:13.658Z,94470.93
2024-05-09T01:06:48.050Z,94468.16
2024-05-09T01:07:21.282Z,94468.48
2024-05-09T01:07:54.561Z,94466.95
2024-05-09T01:08:28.090Z,94465.31
2024-05-09T01:09:01.584Z,94467.19
2024-05-09T01:09:35.135Z,94466.60
2024-05-09T01:10:14.122Z,94464.02
2024-05-09T01:10:58.506Z,94466.42
2024-05-09T01:11:41.516Z,94458.56
2024-05-09T01:12:15.310Z,94462.52
2024-05-09T01:12:48.751Z,94465.87
2024-05-09T01:13:22.094Z,94464.10
2024-05-09T01:13:55.415Z,94463.58
2024-05-09T01:14:28.618Z,94465.30
2024-05-09T01:15:01.674Z,94466.66
2024-05-09T01:15:35.747Z,94463.01
2024-05-09T01:16:09.409Z,94466.02
2024-05-09T01:16:43.044Z,94467.54
2024-05-09T01:17:16.527Z,94464.92
2024-05-09T01:17:50.167Z,94459.86
2024-05-09T01:18:24.228Z,94466.20
2024-05-09T01:18:59.149Z,94472.77
2024-05-09T01:19:33.421Z,94469.48
2024-05-09T01:20:10.659Z,94472.46
2024-05-09T01:20:47.120Z,94471.66
2024-05-09T01:21:20.602Z,94470.04
2024-05-09T01:21:54.002Z,94472.12
2024-05-09T01:22:29.334Z,94474.69
2024-05-09T01:23:09.712Z,94473.20
2024-05-09T01:23:43.971Z,94475.24
2024-05-09T01:24:17.039Z,94475.00
2024-05-09T01:24:51.915Z,94474.84
2024-05-09T01:25:25.192Z,94474.65
2024-05-09T01:25:58.743Z,94464.09
2024-05-09T01:26:32.109Z,94473.75
2024-05-09T01:27:05.524Z,94472.43
2024-05-09T01:27:38.842Z,94469.27
2024-05-09T01:28:12.542Z,94475.88
2024-05-09T01:28:45.995Z,94466.58
2024-05-09T01:29:19.362Z,94477.54
2024-05-09T01:29:52.594Z,94467.02
2024-05-09T01:30:32.915Z,94472.20
2024-05-09T01:31:08.720Z,94472.19
2024-05-09T01:31:42.006Z,94473.27
2024-05-09T01:32:15.288Z,94475.89
2024-05-09T01:32:48.929Z,94473.96
2024-05-09T01:33:22.412Z,94475.27
2024-05-09T01:33:55.722Z,94474.72
2024-05-09T01:34:29.214Z,94473.11
2024-05-09T01:35:02.808Z,94471.63
2024-05-09T01:35:36.508Z,94470.11
2024-05-09T01:36:10.042Z,94473.27
2024-05-09T01:36:44.015Z,94472.34
2024-05-09T01:37:17.321Z,94476.16
2024-05-09T01:37:51.114Z,94474.23
2024-05-09T01:38:24.298Z,94470.07
2024-05-09T01:38:57.945Z,94476.19
2024-05-09T01:39:31.500Z,94470.77
2024-05-09T01:40:09.388Z,94472.48
2024-05-09T01:40:49.125Z,94473.49
2024-05-09T01:42:19.153Z,94470.94
2024-05-09T01:42:57.002Z,94469.25
2024-05-09T01:43:32.431Z,94471.50
2024-05-09T01:44:08.144Z,94465.68
2024-05-09T01:48:36.755Z,94470.35
2024-05-09T01:49:09.999Z,94461.49
2024-05-09T01:49:43.434Z,94473.09
2024-05-09T01:50:16.821Z,94470.48
2024-05-09T01:50:55.947Z,94472.08
2024-05-09T01:51:28.885Z,94469.39
2024-05-09T01:52:02.303Z,94472.00
2024-05-09T01:52:38.822Z,94470.04
2024-05-09T01:53:15.272Z,94472.48
2024-05-09T01:53:48.946Z,94470.96
2024-05-09T01:54:22.030Z,94470.40
2024-05-09T01:54:55.180Z,94471.48
2024-05-09T01:55:28.215Z,94470.45
2024-05-09T01:56:01.525Z,94471.73
2024-05-09T01:56:34.722Z,94470.48
2024-05-09T01:57:07.789Z,94472.61
2024-05-09T01:57:40.802Z,94473.89
2024-05-09T01:58:13.964Z,94472.73
2024-05-09T01:58:47.277Z,94473.58
2024-05-09T01:59:20.787Z,94474.18
2024-05-09T01:59:54.022Z,94471.14
2024-05-09T02:00:36.152Z,94479.23
2024-05-09T02:01:12.859Z,94475.95
2024-05-09T02:01:56.476Z,94477.52
2024-05-09T02:02:30.969Z,94471.77
2024-05-09T02:03:04.541Z,94475.98
2024-05-09T02:03:37.957Z,94473.28
2024-05-09T02:04:11.420Z,94474.20
2024-05-09T02:04:47.574Z,94473.68
2024-05-09T02:05:21.194Z,94476.77
2024-05-09T02:05:54.333Z,94477.41
2024-05-09T02:06:30.043Z,94474.60
2024-05-09T02:07:03.251Z,94479.23
2024-05-09T02:07:36.656Z,94479.66
2024-05-09T02:08:14.880Z,94474.25
2024-05-09T02:08:48.326Z,94476.38
2024-05-09T02:09:21.378Z,94480.28
2024-05-09T02:09:54.518Z,94477.91
2024-05-09T02:10:32.471Z,94482.00
2024-05-09T02:11:08.776Z,94474.31
2024-05-09T02:11:47.737Z,94478.08
2024-05-09T02:12:20.996Z,94477.36
2024-05-09T02:12:53.997Z,94475.29
2024-05-09T02:13:28.127Z,94480.73
2024-05-09T02:14:01.362Z,94473.98
2024-05-09T02:14:34.439Z,94481.55
2024-05-09T02:15:07.686Z,94480.44
2024-05-09T02:15:40.708Z,94473.98
2024-05-09T02:16:14.863Z,94479.65
2024-05-09T02:16:48.089Z,94479.96
2024-05-09T02:17:21.402Z,94479.75
2024-05-09T02:17:54.692Z,94478.60
2024-05-09T02:18:28.278Z,94482.17
2024-05-09T02:19:01.669Z,94473.71
2024-05-09T02:19:34.984Z,94480.09
2024-05-09T02:20:10.727Z,94476.59
2024-05-09T02:20:46.524Z,94476.65
2024-05-09T02:21:19.549Z,94476.11
2024-05-09T02:21:52.594Z,94474.30
2024-05-09T02:22:25.681Z,94470.20
2024-05-09T02:22:58.886Z,94474.71
2024-05-09T02:23:32.009Z,94476.89
2024-05-09T02:24:05.196Z,94477.58
2024-05-09T02:24:38.210Z,94472.55
2024-05-09T02:25:11.257Z,94475.30
2024-05-09T02:25:44.420Z,94475.77
2024-05-09T02:26:17.648Z,94474.29
2024-05-09T02:26:50.709Z,94479.11
2024-05-09T02:27:23.707Z,94475.90
2024-05-09T02:27:56.783Z,94473.26
2024-05-09T02:28:30.026Z,94472.49
2024-05-09T02:29:03.495Z,94472.89
2024-05-09T02:29:36.471Z,94474.09
2024-05-09T02:30:18.713Z,94470.87
2024-05-09T02:30:59.222Z,94473.93
2024-05-09T02:31:32.334Z,94472.00
2024-05-09T02:32:06.081Z,94471.23
2024-05-09T02:32:39.564Z,94472.64
2024-05-09T02:33:14.291Z,94472.75
2024-05-09T02:33:48.507Z,94469.54
2024-05-09T02:34:23.086Z,94471.70
2024-05-09T02:34:56.666Z,94472.59
2024-05-09T02:35:30.043Z,94473.91
2024-05-09T02:36:03.326Z,94471.27
2024-05-09T02:36:36.654Z,94477.69
2024-05-09T02:37:09.965Z,94477.17
2024-05-09T02:37:43.311Z,94470.23
2024-05-09T02:38:16.599Z,94471.90
2024-05-09T02:38:49.843Z,94475.21
2024-05-09T02:39:22.882Z,94476.55
2024-05-09T02:39:55.909Z,94475.38
2024-05-09T02:40:36.603Z,94479.79
2024-05-09T02:41:12.199Z,94469.05
2024-05-09T02:41:45.317Z,94474.11
2024-05-09T02:42:18.491Z,94476.27
2024-05-09T02:42:51.577Z,94478.89
2024-05-09T02:43:25.457Z,94476.69
2024-05-09T02:43:58.534Z,94476.08
2024-05-09T02:44:31.638Z,94471.98
2024-05-09T02:45:05.254Z,94478.20
2024-05-09T02:45:39.058Z,94475.29
2024-05-09T02:46:12.463Z,94475.31
2024-05-09T02:46:45.756Z,94475.33
2024-05-09T02:47:19.310Z,94478.36
2024-05-09T02:47:52.836Z,94473.27
2024-05-09T02:48:26.188Z,94467.61
2024-05-09T02:48:59.973Z,94473.59
2024-05-09T02:49:33.553Z,94473.26
2024-05-09T02:50:08.259Z,94476.18
2024-05-09T02:50:42.328Z,94477.42
2024-05-09T02:51:15.851Z,94473.52
2024-05-09T02:51:49.251Z,94474.70
2024-05-09T02:52:22.393Z,94474.50
2024-05-09T02:52:55.515Z,94473.91
2024-05-09T02:53:29.419Z,94474.40
2024-05-09T02:54:02.858Z,94477.18
2024-05-09T02:54:36.016Z,94476.45
2024-05-09T02:55:09.129Z,94478.19
2024-05-09T02:55:43.029Z,94476.46
2024-05-09T02:56:16.522Z,94478.48
2024-05-09T02:56:49.684Z,94478.45
2024-05-09T02:57:22.901Z,94478.05
2024-05-09T02:57:56.103Z,94476.45
2024-05-09T02:58:29.357Z,94475.21
2024-05-09T02:59:02.719Z,94478.73
2024-05-09T02:59:36.148Z,94473.56
2024-05-09T03:00:15.226Z,94475.96
2024-05-09T03:00:52.178Z,94475.89
2024-05-09T03:01:25.366Z,94476.62
2024-05-09T03:01:58.599Z,94477.58
2024-05-09T03:02:31.940Z,94478.16
2024-05-09T03:03:06.142Z,94476.98
2024-05-09T03:03:43.674Z,94471.55
2024-05-09T03:04:16.956Z,94475.64
2024-05-09T03:04:50.094Z,94478.73
2024-05-09T03:05:23.257Z,94474.16
2024-05-09T03:05:56.367Z,94477.19
2024-05-09T03:06:29.496Z,94472.98
2024-05-09T03:07:02.683Z,94478.87
2024-05-09T03:07:35.767Z,94482.23
2024-05-09T03:08:09.365Z,94479.86
2024-05-09T03:08:48.605Z,94478.34
2024-05-09T03:09:23.845Z,94477.45
2024-05-09T03:09:56.857Z,94474.52
2024-05-09T03:10:35.622Z,94481.13
2024-05-09T03:11:20.773Z,94477.27
2024-05-09T03:11:54.109Z,94476.73
2024-05-09T03:12:28.566Z,94476.07
2024-05-09T03:13:09.383Z,94474.30
2024-05-09T03:13:42.530Z,94481.47
2024-05-09T03:14:18.997Z,94481.48
2024-05-09T03:14:52.063Z,94481.55
2024-05-09T03:15:25.015Z,94483.95
2024-05-09T03:16:00.057Z,94483.66
2024-05-09T03:16:38.520Z,94482.60
2024-05-09T03:17:11.948Z,94483.69
2024-05-09T03:17:45.339Z,94481.90
2024-05-09T03:18:18.920Z,94483.23
2024-05-09T03:18:52.442Z,94484.90
2024-05-09T03:19:25.798Z,94483.66
2024-05-09T03:19:59.711Z,94486.67
2024-05-09T03:20:35.419Z,94486.05
2024-05-09T03:21:09.996Z,94488.11
2024-05-09T03:21:43.065Z,94488.81
2024-05-09T03:22:16.361Z,94490.82
2024-05-09T03:22:49.688Z,94490.20
2024-05-09T03:23:23.143Z,94459.96
2024-05-09T03:23:56.390Z,94490.92
2024-05-09T03:24:29.632Z,94485.70
2024-05-09T03:25:02.741Z,94489.91
2024-05-09T03:25:36.052Z,94489.96
2024-05-09T03:26:16.949Z,94490.85
2024-05-09T03:26:50.074Z,94488.99
2024-05-09T03:27:24.840Z,94488.77
2024-05-09T03:27:57.793Z,94490.23
2024-05-09T03:28:30.898Z,94489.95
2024-05-09T03:29:04.028Z,94491.43
2024-05-09T03:29:37.316Z,94487.38
2024-05-09T03:30:15.389Z,94486.87
2024-05-09T03:30:52.064Z,94487.05
2024-05-09T03:31:25.173Z,94488.23
2024-05-09T03:32:00.124Z,94486.16
2024-05-09T03:32:33.427Z,94490.80
2024-05-09T03:33:15.408Z,94488.52
2024-05-09T03:33:49.319Z,94490.36
2024-05-09T03:34:22.431Z,94491.92
2024-05-09T03:34:55.781Z,94490.56
2024-05-09T03:35:29.288Z,94491.88
2024-05-09T03:36:09.094Z,94491.27
2024-05-09T03:36:44.007Z,94491.81
2024-05-09T03:37:17.263Z,94492.22
2024-05-09T03:37:50.415Z,94491.11
2024-05-09T03:38:23.492Z,94491.34
2024-05-09T03:38:56.745Z,94493.63
2024-05-09T03:39:30.124Z,94493.71
2024-05-09T03:40:05.608Z,94489.15
2024-05-09T03:40:48.518Z,94493.64
2024-05-09T03:41:22.669Z,94492.83
2024-05-09T03:41:55.722Z,94491.31
2024-05-09T03:42:29.004Z,94493.52
2024-05-09T03:43:02.646Z,94494.85
2024-05-09T03:43:36.131Z,94495.46
2024-05-09T03:44:09.616Z,94494.93
2024-05-09T03:44:42.629Z,94492.98
2024-05-09T03:45:15.786Z,94496.47
2024-05-09T03:45:50.596Z,94495.23
2024-05-09T03:46:23.954Z,94493.14
2024-05-09T03:46:57.476Z,94498.69
2024-05-09T03:47:32.637Z,94496.92
2024-05-09T03:48:06.505Z,94497.20
2024-05-09T03:48:39.814Z,94494.60
2024-05-09T03:49:14.153Z,94494.81
2024-05-09T03:49:47.401Z,94491.31
2024-05-09T03:50:29.398Z,94496.77
2024-05-09T03:51:07.440Z,94492.34
2024-05-09T03:51:40.824Z,94494.45
2024-05-09T03:52:14.186Z,94497.45
2024-05-09T03:52:48.026Z,94498.21
2024-05-09T03:53:22.996Z,94499.24
2024-05-09T03:53:56.198Z,94494.85
2024-05-09T03:54:29.406Z,94501.39
2024-05-09T03:55:03.095Z,94499.92
2024-05-09T03:55:36.426Z,94499.16
2024-05-09T03:56:11.269Z,94502.70
2024-05-09T03:56:44.622Z,94503.29
2024-05-09T03:57:18.018Z,94504.40
2024-05-09T03:57:51.291Z,94502.25
2024-05-09T03:58:27.506Z,94505.42
2024-05-09T03:59:01.165Z,94505.86
2024-05-09T03:59:34.681Z,94504.66
2024-05-09T04:00:17.724Z,94504.75
2024-05-09T04:00:59.428Z,94501.99
2024-05-09T04:01:32.814Z,94507.58
2024-05-09T04:02:06.635Z,94506.93
2024-05-09T04:02:43.626Z,94506.95
2024-05-09T04:03:17.243Z,94510.41
2024-05-09T04:03:50.848Z,94507.53
2024-05-09T04:04:24.162Z,94510.34
2024-05-09T04:04:57.442Z,94507.36
2024-05-09T04:05:31.129Z,94509.61
2024-05-09T04:06:04.617Z,94514.39
2024-05-09T04:06:37.623Z,94515.77
2024-05-09T04:07:11.154Z,94516.89
2024-05-09T04:07:44.887Z,94518.13
2024-05-09T04:08:18.110Z,94515.56
2024-05-09T04:08:51.787Z,94514.68
2024-05-09T04:09:24.792Z,94515.65
2024-05-09T04:09:57.826Z,94512.60
2024-05-09T04:10:33.894Z,94494.33
2024-05-09T04:11:08.252Z,94514.77
2024-05-09T04:11:41.440Z,94514.09
2024-05-09T04:12:14.525Z,94512.68
2024-05-09T04:12:47.496Z,94504.26
2024-05-09T04:13:20.516Z,94510.36
2024-05-09T04:13:53.791Z,94512.08
2024-05-09T04:14:27.133Z,94511.04
2024-05-09T04:15:00.401Z,94508.52
2024-05-09T04:15:33.636Z,94511.42
2024-05-09T04:16:09.819Z,94516.02
2024-05-09T04:16:42.888Z,94513.97
2024-05-09T04:17:16.148Z,94510.98
2024-05-09T04:17:51.601Z,94513.39
2024-05-09T04:18:25.033Z,94512.19
2024-05-09T04:18:58.354Z,94515.08
2024-05-09T04:19:31.857Z,94512.91
2024-05-09T04:20:08.327Z,94517.08
2024-05-09T04:20:41.920Z,94514.84
2024-05-09T04:21:15.137Z,94513.61
2024-05-09T04:21:48.281Z,94510.95
2024-05-09T04:22:22.725Z,94517.70
2024-05-09T04:22:55.924Z,94515.21
2024-05-09T04:23:29.426Z,94519.28
2024-05-09T04:24:02.672Z,94520.35
2024-05-09T04:24:35.641Z,94521.41
2024-05-09T04:25:08.872Z,94523.55
2024-05-09T04:25:47.032Z,94525.55
2024-05-09T04:26:20.451Z,94522.11
2024-05-09T04:26:53.699Z,94525.35
2024-05-09T04:27:26.775Z,94527.80
2024-05-09T04:27:59.966Z,94531.64
2024-05-09T04:28:33.065Z,94528.15
2024-05-09T04:29:06.374Z,94527.27
2024-05-09T04:29:40.591Z,94531.36
2024-05-09T04:30:21.629Z,94530.63
2024-05-09T04:31:03.838Z,94509.27
2024-05-09T04:31:37.042Z,94533.20
2024-05-09T04:32:10.299Z,94533.52
2024-05-09T04:32:44.163Z,94533.02
2024-05-09T04:33:20.351Z,94534.01
2024-05-09T04:33:54.263Z,94531.66
2024-05-09T04:34:27.525Z,94535.27
2024-05-09T04:35:00.887Z,94533.04
2024-05-09T04:35:34.458Z,94533.36
2024-05-09T04:36:07.867Z,94529.48
2024-05-09T04:36:43.850Z,94538.83
2024-05-09T04:37:18.024Z,94533.59
2024-05-09T04:37:51.226Z,94534.91
2024-05-09T04:38:24.747Z,94535.57
2024-05-09T04:38:58.002Z,94535.08
2024-05-09T04:39:31.074Z,94537.14
2024-05-09T04:40:07.024Z,94538.81
2024-05-09T04:40:42.453Z,94537.40
2024-05-09T04:41:15.709Z,94537.55
2024-05-09T04:41:48.982Z,94530.71
2024-05-09T04:42:22.173Z,94533.70
2024-05-09T04:42:55.409Z,94538.55
2024-05-09T04:43:28.666Z,94529.73
2024-05-09T04:44:01.906Z,94538.33
2024-05-09T04:44:35.168Z,94538.75
2024-05-09T04:45:08.340Z,94537.39
2024-05-09T04:45:41.657Z,94538.46
2024-05-09T04:46:14.941Z,94539.31
2024-05-09T04:46:48.533Z,94536.86
2024-05-09T04:47:21.770Z,94543.52
2024-05-09T04:47:55.335Z,94544.38
2024-05-09T04:48:29.424Z,94540.48
2024-05-09T04:49:03.051Z,94542.08
2024-05-09T04:49:36.137Z,94545.76
2024-05-09T04:50:11.848Z,94540.42
2024-05-09T04:50:47.762Z,94535.48
2024-05-09T04:51:20.860Z,94540.90
2024-05-09T04:51:53.876Z,94541.73
2024-05-09T04:52:27.075Z,94538.44
2024-05-09T04:53:00.039Z,94540.08
2024-05-09T04:53:33.546Z,94540.92
2024-05-09T04:54:08.487Z,94536.56
2024-05-09T04:54:44.972Z,94543.92
2024-05-09T04:55:17.940Z,94541.08
2024-05-09T04:55:51.213Z,94545.44
2024-05-09T04:56:24.558Z,94543.22
2024-05-09T04:56:57.808Z,94538.39
2024-05-09T04:57:30.898Z,94542.17
2024-05-09T04:58:05.835Z,94542.84
2024-05-09T04:58:40.148Z,94539.93
2024-05-09T04:59:13.649Z,94541.45
2024-05-09T04:59:47.085Z,94541.43
2024-05-09T05:00:28.492Z,94539.67
2024-05-09T05:01:08.076Z,94541.48
2024-05-09T05:01:41.252Z,94540.54
2024-05-09T05:02:15.155Z,94544.10
2024-05-09T05:02:48.578Z,94543.65
2024-05-09T05:03:22.230Z,94541.31
2024-05-09T05:03:56.239Z,94541.30
2024-05-09T05:04:31.141Z,94543.94
2024-05-09T05:05:05.128Z,94543.86
2024-05-09T05:05:40.780Z,94541.39
2024-05-09T05:06:14.530Z,94541.25
2024-05-09T05:06:47.647Z,94542.58
2024-05-09T05:07:21.037Z,94542.11
2024-05-09T05:07:54.734Z,94544.94
2024-05-09T05:08:28.593Z,94540.98
2024-05-09T05:09:02.045Z,94544.16
2024-05-09T05:09:35.125Z,94541.35
2024-05-09T05:10:14.874Z,94544.05
2024-05-09T05:10:54.359Z,94541.42
2024-05-09T05:11:27.711Z,94543.21
2024-05-09T05:12:02.814Z,94545.05
2024-05-09T05:12:54.476Z,94543.48
2024-05-09T05:13:33.753Z,94538.45
2024-05-09T05:14:07.051Z,94546.12
2024-05-09T05:14:40.652Z,94549.86
2024-05-09T05:15:14.251Z,94550.14
2024-05-09T05:15:48.346Z,94549.45
2024-05-09T05:16:21.439Z,94547.28
2024-05-09T05:16:55.208Z,94551.39
2024-05-09T05:17:28.709Z,94550.31
2024-05-09T05:18:02.174Z,94552.88
2024-05-09T05:18:35.452Z,94547.92
2024-05-09T05:19:12.680Z,94553.44
2024-05-09T05:19:47.529Z,94550.79
2024-05-09T05:20:27.484Z,94550.50
2024-05-09T05:21:06.410Z,94550.44
2024-05-09T05:21:39.818Z,94554.30
2024-05-09T05:22:12.996Z,94551.92
2024-05-09T05:22:46.578Z,94555.14
2024-05-09T05:23:21.506Z,94551.59
2024-05-09T05:23:55.101Z,94552.98
2024-05-09T05:24:28.400Z,94549.98
2024-05-09T05:25:01.543Z,94547.14
2024-05-09T05:25:34.665Z,94546.11
2024-05-09T05:26:07.778Z,94546.75
2024-05-09T05:26:41.112Z,94547.53
2024-05-09T05:27:14.286Z,94544.72
2024-05-09T05:27:47.392Z,94545.64
2024-05-09T05:28:21.719Z,94548.06
2024-05-09T05:28:55.395Z,94539.92
2024-05-09T05:29:28.702Z,94543.73
2024-05-09T05:30:02.064Z,94544.17
2024-05-09T05:30:37.839Z,94545.67
2024-05-09T05:31:11.033Z,94542.74
2024-05-09T05:31:44.338Z,94543.07
2024-05-09T05:32:17.714Z,94545.32
2024-05-09T05:32:51.183Z,94541.16
2024-05-09T05:33:24.734Z,94546.18
2024-05-09T05:33:57.858Z,94539.00
2024-05-09T05:34:31.536Z,94543.19
2024-05-09T05:35:05.108Z,94540.96
2024-05-09T05:35:39.028Z,94542.91
2024-05-09T05:36:12.248Z,94541.31
2024-05-09T05:36:45.503Z,94542.83
2024-05-09T05:37:18.756Z,94536.34
2024-05-09T05:37:51.981Z,94540.55
2024-05-09T05:38:27.980Z,94544.12
2024-05-09T05:39:02.019Z,94540.88
2024-05-09T05:39:35.673Z,94541.63
2024-05-09T05:40:14.588Z,94541.81
2024-05-09T05:40:51.077Z,94538.02
2024-05-09T05:41:24.452Z,94541.14
2024-05-09T05:41:57.528Z,94543.23
2024-05-09T05:42:30.632Z,94541.01
2024-05-09T05:43:11.004Z,94541.63
2024-05-09T05:43:44.648Z,94541.72
2024-05-09T05:44:18.336Z,94541.52
2024-05-09T05:44:51.956Z,94538.36
2024-05-09T05:45:25.276Z,94539.92
2024-05-09T05:45:59.884Z,94541.94
2024-05-09T05:46:33.268Z,94540.41
2024-05-09T05:47:06.698Z,94540.90
2024-05-09T05:47:40.398Z,94538.92
2024-05-09T05:48:17.467Z,94537.77
2024-05-09T05:48:51.201Z,94540.39
2024-05-09T05:49:24.973Z,94536.67
2024-05-09T05:49:58.542Z,94539.77
2024-05-09T05:50:36.036Z,94538.67
2024-05-09T05:51:11.485Z,94538.59
2024-05-09T05:51:44.728Z,94539.17
2024-05-09T05:52:17.912Z,94539.27
2024-05-09T05:52:51.194Z,94540.08
2024-05-09T05:53:24.592Z,94540.86
2024-05-09T05:53:58.189Z,94538.21
2024-05-09T05:54:31.528Z,94538.50
2024-05-09T05:55:05.097Z,94542.02
2024-05-09T05:55:40.404Z,94543.06
2024-05-09T05:56:14.127Z,94540.09
2024-05-09T05:56:47.539Z,94543.35
2024-05-09T05:57:20.928Z,94541.12
2024-05-09T05:57:54.118Z,94543.75
2024-05-09T05:58:27.387Z,94547.73
2024-05-09T05:59:00.621Z,94547.31
2024-05-09T05:59:33.901Z,94547.88
2024-05-09T06:00:09.820Z,94545.54
2024-05-09T06:00:46.922Z,94547.50
2024-05-09T06:01:20.105Z,94546.02
2024-05-09T06:01:53.580Z,94546.83
2024-05-09T06:02:28.925Z,94548.71
2024-05-09T06:03:02.614Z,94546.16
2024-05-09T06:03:35.885Z,94547.27
2024-05-09T06:04:09.411Z,94550.57
2024-05-09T06:04:43.368Z,94547.31
2024-05-09T06:05:17.951Z,94545.30
2024-05-09T06:05:53.758Z,94547.86
2024-05-09T06:06:27.076Z,94549.25
2024-05-09T06:07:00.415Z,94545.48
2024-05-09T06:07:33.780Z,94544.59
2024-05-09T06:08:07.550Z,94546.16
2024-05-09T06:08:41.119Z,94545.52
2024-05-09T06:09:14.664Z,94545.45
2024-05-09T06:09:49.945Z,94544.06
2024-05-09T06:10:29.689Z,94548.35
2024-05-09T06:11:08.549Z,94549.30
2024-05-09T06:11:42.783Z,94548.73
2024-05-09T06:12:16.124Z,94549.35
2024-05-09T06:12:49.396Z,94548.14
2024-05-09T06:13:22.946Z,94545.48
2024-05-09T06:13:56.117Z,94548.44
2024-05-09T06:14:29.485Z,94548.05
2024-05-09T06:15:03.091Z,94547.00
2024-05-09T06:15:36.544Z,94546.61
2024-05-09T06:16:10.158Z,94542.70
2024-05-09T06:16:43.696Z,94544.00
2024-05-09T06:17:17.042Z,94542.30
2024-05-09T06:17:50.383Z,94539.95
2024-05-09T06:18:24.092Z,94542.28
2024-05-09T06:18:57.677Z,94542.55
2024-05-09T06:19:31.095Z,94543.45
2024-05-09T06:20:09.087Z,94540.03
2024-05-09T06:20:46.722Z,94542.95
2024-05-09T06:21:20.150Z,94541.36
2024-05-09T06:21:53.282Z,94543.91
2024-05-09T06:22:26.641Z,94540.54
2024-05-09T06:22:59.944Z,94544.72
2024-05-09T06:23:33.445Z,94544.06
2024-05-09T06:24:07.205Z,94546.67
2024-05-09T06:24:40.676Z,94545.77
2024-05-09T06:25:13.927Z,94542.70
2024-05-09T06:25:47.079Z,94546.05
2024-05-09T06:26:20.489Z,94545.05
2024-05-09T06:26:53.826Z,94546.45
2024-05-09T06:27:27.104Z,94546.91
2024-05-09T06:28:01.687Z,94550.00
2024-05-09T06:28:35.674Z,94547.63
2024-05-09T06:29:08.811Z,94549.86
2024-05-09T06:29:41.986Z,94550.46
2024-05-09T06:30:25.644Z,94550.41
2024-05-09T06:31:04.227Z,94547.31
2024-05-09T06:31:43.558Z,94544.23
2024-05-09T06:32:16.690Z,94544.84
2024-05-09T06:32:50.240Z,94546.08
2024-05-09T06:33:23.513Z,94549.27
2024-05-09T06:33:56.922Z,94551.86
2024-05-09T06:34:30.358Z,94550.41
2024-05-09T06:35:03.980Z,94548.98
2024-05-09T06:35:37.487Z,94549.67
2024-05-09T06:36:10.944Z,94548.21
2024-05-09T06:36:44.132Z,94545.77
2024-05-09T06:37:17.400Z,94543.90
2024-05-09T06:37:50.853Z,94538.63
2024-05-09T06:38:24.313Z,94543.71
2024-05-09T06:38:57.526Z,94541.59
2024-05-09T06:39:30.861Z,94541.13
2024-05-09T06:40:05.535Z,94540.83
2024-05-09T06:40:42.598Z,94541.77
2024-05-09T06:41:17.343Z,94535.84
2024-05-09T06:41:51.059Z,94541.91
2024-05-09T06:42:24.480Z,94539.41
2024-05-09T06:42:59.554Z,94538.27
2024-05-09T06:43:32.824Z,94534.15
2024-05-09T06:44:06.057Z,94541.03
2024-05-09T06:44:39.463Z,94538.05
2024-05-09T06:45:15.646Z,94539.77
2024-05-09T06:45:50.449Z,94538.25
2024-05-09T06:46:23.940Z,94539.16
2024-05-09T06:46:59.382Z,94536.42
2024-05-09T06:47:34.263Z,94538.77
2024-05-09T06:48:10.046Z,94538.03
2024-05-09T06:48:43.806Z,94542.15